Time;durP1;ratioP1;P1;durP2;ratioP2;P2;SDS_P1;SDS_P2;PMS_P1;PMS_P2;Temp;Humidity;BMP_temperature;BMP_pressure;BME280_temperature;BME280_humidity;BME280_pressure;Samples;Min_cycle;Max_cycle;Signal;HPM_P1;HPM_P2
2024/01/02 00:02:07;;;;;;;42.05;19.13;;;;;;;7.90;100.00;97239.44;5123207;27;20030;-83
2024/01/02 00:04:32;;;;;;;44.70;21.08;;;;;;;7.89;100.00;97240.34;5108930;27;20042;-83
2024/01/02 00:06:58;;;;;;;42.70;20.88;;;;;;;7.95;100.00;97248.00;5112272;27;20085;-84
2024/01/02 00:09:23;;;;;;;43.22;21.52;;;;;;;7.95;100.00;97236.50;5125150;27;20051;-84
2024/01/02 00:11:49;;;;;;;35.80;18.65;;;;;;;7.99;100.00;97238.03;5108540;27;20023;-84
2024/01/02 00:14:14;;;;;;;39.78;18.27;;;;;;;8.00;100.00;97251.25;5097425;27;20126;-85
2024/01/02 00:16:40;;;;;;;39.72;18.20;;;;;;;8.00;100.00;97240.59;5114533;27;20027;-84
2024/01/02 00:19:05;;;;;;;35.20;18.38;;;;;;;7.94;100.00;97234.75;5132768;27;20035;-84
2024/01/02 00:21:31;;;;;;;38.90;19.20;;;;;;;7.99;100.00;97235.38;5118083;27;20458;-84
2024/01/02 00:23:57;;;;;;;36.45;18.27;;;;;;;8.06;100.00;97242.06;5105737;28;20028;-84
2024/01/02 00:26:24;;;;;;;40.15;18.75;;;;;;;8.03;100.00;97237.75;5101253;27;20027;-83
2024/01/02 00:28:50;;;;;;;38.85;19.00;;;;;;;8.00;100.00;97245.06;5133438;27;20023;-83
2024/01/02 00:31:15;;;;;;;32.05;17.35;;;;;;;7.96;100.00;97244.41;5113790;27;20023;-83
2024/01/02 00:33:41;;;;;;;33.88;17.92;;;;;;;7.91;100.00;97243.78;5079710;27;20028;-83
2024/01/02 00:36:11;;;;;;;33.95;17.58;;;;;;;7.93;100.00;97254.38;5134846;27;20035;-83
2024/01/02 00:38:36;;;;;;;35.13;16.90;;;;;;;7.92;100.00;97248.19;5118086;27;20033;-83
2024/01/02 00:41:02;;;;;;;31.92;16.10;;;;;;;7.99;100.00;97246.91;5096800;27;20541;-85
2024/01/02 00:43:28;;;;;;;31.33;16.70;;;;;;;7.95;100.00;97250.66;5111581;27;20459;-82
2024/01/02 00:45:55;;;;;;;33.38;16.02;;;;;;;7.93;100.00;97251.69;5109539;27;20019;-83
2024/01/02 00:48:21;;;;;;;30.88;16.67;;;;;;;7.90;100.00;97265.19;5123273;27;20026;-83
2024/01/02 00:50:47;;;;;;;34.67;16.85;;;;;;;7.88;100.00;97262.59;5102954;27;20027;-84
2024/01/02 00:53:12;;;;;;;32.38;15.15;;;;;;;7.92;100.00;97264.16;5103115;28;20240;-84
2024/01/02 00:55:38;;;;;;;34.92;15.77;;;;;;;7.97;100.00;97264.75;5120490;27;20545;-83
2024/01/02 00:58:04;;;;;;;34.67;16.50;;;;;;;7.92;100.00;97264.16;5108955;27;22201;-85
2024/01/02 01:00:29;;;;;;;36.25;17.40;;;;;;;7.90;100.00;97266.06;5102189;27;20031;-85
2024/01/02 01:02:55;;;;;;;33.67;15.70;;;;;;;7.97;100.00;97256.75;5103547;27;20105;-84
2024/01/02 01:05:20;;;;;;;38.22;16.65;;;;;;;7.95;100.00;97252.47;5111349;27;20034;-84
2024/01/02 01:07:46;;;;;;;29.23;14.63;;;;;;;7.92;100.00;97252.63;5105990;28;20485;-85
2024/01/02 01:10:11;;;;;;;29.08;14.20;;;;;;;7.92;100.00;97256.16;5115080;27;20019;-84
2024/01/02 01:12:37;;;;;;;35.65;15.23;;;;;;;7.93;100.00;97257.91;5117171;27;20457;-83
2024/01/02 01:15:04;;;;;;;31.23;15.55;;;;;;;7.89;100.00;97256.34;5113126;27;20054;-84
2024/01/02 01:17:30;;;;;;;35.05;15.57;;;;;;;7.95;100.00;97255.13;5125404;27;20549;-83
2024/01/02 01:19:56;;;;;;;28.63;14.30;;;;;;;8.13;100.00;97257.63;5112971;27;20176;-84
2024/01/02 01:22:22;;;;;;;32.50;15.02;;;;;;;8.17;100.00;97259.16;5134420;27;20015;-84
2024/01/02 01:24:48;;;;;;;29.25;14.05;;;;;;;8.05;100.00;97245.69;5134144;27;20533;-83
2024/01/02 01:27:14;;;;;;;33.78;15.88;;;;;;;8.03;100.00;97255.53;5120574;27;20149;-83
2024/01/02 01:29:39;;;;;;;28.85;14.98;;;;;;;8.01;100.00;97252.97;5119108;27;20029;-84
2024/01/02 01:32:05;;;;;;;35.92;15.82;;;;;;;8.00;100.00;97259.25;5109026;27;20031;-83
2024/01/02 01:34:31;;;;;;;33.33;15.63;;;;;;;8.00;100.00;97259.25;5107167;28;20146;-83
2024/01/02 01:36:57;;;;;;;27.98;14.55;;;;;;;8.09;100.00;97248.06;5101919;28;20071;-83
2024/01/02 01:39:22;;;;;;;31.10;14.55;;;;;;;8.16;100.00;97259.25;5105517;28;20077;-84
2024/01/02 01:41:48;;;;;;;29.00;15.52;;;;;;;8.07;100.00;97257.09;5112387;27;20023;-84
2024/01/02 01:44:14;;;;;;;33.38;15.48;;;;;;;8.06;100.00;97250.03;5110724;27;20159;-83
2024/01/02 01:46:40;;;;;;;31.50;15.07;;;;;;;7.98;100.00;97247.81;5117693;27;20449;-83
2024/01/02 01:49:07;;;;;;;29.33;15.05;;;;;;;8.00;100.00;97256.56;5115038;27;20027;-83
2024/01/02 01:51:34;;;;;;;27.77;14.10;;;;;;;8.03;100.00;97255.53;5134701;27;20118;-84
2024/01/02 01:54:01;;;;;;;28.10;14.85;;;;;;;8.00;100.00;97256.56;5110278;27;20019;-83
2024/01/02 01:56:26;;;;;;;25.92;13.82;;;;;;;7.97;100.00;97262.06;5096697;27;20035;-84
2024/01/02 01:58:52;;;;;;;28.05;14.35;;;;;;;7.87;100.00;97257.38;5109622;27;20091;-85
2024/01/02 02:01:17;;;;;;;29.40;14.77;;;;;;;8.04;100.00;97255.47;5120040;27;20527;-84
2024/01/02 02:03:44;;;;;;;31.02;16.30;;;;;;;8.11;100.00;97245.34;5128875;27;20060;-84
2024/01/02 02:06:09;;;;;;;23.63;12.43;;;;;;;8.03;100.00;97252.88;5118617;27;20131;-83
2024/01/02 02:08:36;;;;;;;29.58;14.32;;;;;;;7.90;100.00;97244.75;5111032;27;20474;-84
2024/01/02 02:11:03;;;;;;;29.08;13.45;;;;;;;7.84;100.00;97241.56;5119957;27;20034;-84
2024/01/02 02:13:28;;;;;;;27.60;14.00;;;;;;;7.63;100.00;97246.25;5102630;27;20482;-84
2024/01/02 02:15:54;;;;;;;30.23;15.38;;;;;;;7.48;100.00;97244.44;5115940;27;20094;-84
2024/01/02 02:18:19;;;;;;;27.52;13.75;;;;;;;7.47;100.00;97256.91;5113892;27;20118;-84
2024/01/02 02:20:45;;;;;;;33.38;14.05;;;;;;;7.41;100.00;97251.88;5110950;27;20023;-84
2024/01/02 02:23:11;;;;;;;30.60;14.32;;;;;;;7.45;100.00;97271.22;5131312;27;20073;-84
2024/01/02 02:25:37;;;;;;;29.92;14.85;;;;;;;7.46;100.00;97256.97;5102911;27;20041;-84
2024/01/02 02:28:03;;;;;;;27.20;14.57;;;;;;;7.63;100.00;97262.22;5122658;27;20425;-84
2024/01/02 02:30:29;;;;;;;24.25;13.13;;;;;;;7.80;100.00;97271.97;5105563;27;20015;-84
2024/01/02 02:32:54;;;;;;;27.63;14.57;;;;;;;7.85;100.00;97268.09;5111565;27;20076;-83
2024/01/02 02:35:20;;;;;;;26.02;12.85;;;;;;;7.94;100.00;97278.22;5102798;27;20027;-84
2024/01/02 02:37:46;;;;;;;27.88;13.90;;;;;;;7.80;100.00;97259.50;5111594;27;20051;-83
2024/01/02 02:40:12;;;;;;;25.15;13.32;;;;;;;7.82;100.00;97268.25;5103052;27;20023;-84
2024/01/02 02:42:37;;;;;;;24.20;13.88;;;;;;;7.78;100.00;97266.72;5109390;27;20031;-84
2024/01/02 02:45:04;;;;;;;29.92;14.98;;;;;;;7.71;100.00;97276.00;5108479;27;20030;-84
2024/01/02 02:47:30;;;;;;;30.13;14.32;;;;;;;7.71;100.00;97281.31;5105721;27;20030;-84
2024/01/02 02:49:56;;;;;;;27.55;13.43;;;;;;;7.81;100.00;97287.88;5104816;27;20023;-84
2024/01/02 02:52:21;;;;;;;23.98;12.43;;;;;;;7.89;100.00;97288.28;5128560;27;20042;-84
2024/01/02 02:54:47;;;;;;;23.20;11.55;;;;;;;7.84;100.00;97279.72;5109678;28;20160;-84
2024/01/02 02:57:13;;;;;;;24.70;11.98;;;;;;;7.94;100.00;97294.22;5118636;27;20049;-83
2024/01/02 02:59:38;;;;;;;21.48;10.80;;;;;;;7.92;100.00;97293.44;5112935;27;20022;-84
2024/01/02 03:02:04;;;;;;;20.70;10.32;;;;;;;7.94;100.00;97291.53;5101415;27;20015;-84
2024/01/02 03:04:30;;;;;;;19.80;11.38;;;;;;;7.94;100.00;97294.22;5105911;27;20023;-84
2024/01/02 03:06:56;;;;;;;17.30;9.90;;;;;;;8.04;100.00;97299.88;5109742;27;20047;-84
2024/01/02 03:09:22;;;;;;;18.23;9.57;;;;;;;8.02;100.00;97293.78;5132194;27;20051;-83
2024/01/02 03:11:48;;;;;;;17.48;9.02;;;;;;;8.06;100.00;97298.84;5097133;27;20034;-84
2024/01/02 03:14:14;;;;;;;15.00;7.85;;;;;;;7.97;100.00;97288.72;5098630;27;20023;-84
2024/01/02 03:16:41;;;;;;;16.00;7.78;;;;;;;7.89;100.00;97280.31;5098356;27;20500;-83
2024/01/02 03:19:07;;;;;;;14.73;7.30;;;;;;;7.91;100.00;97288.19;5094883;28;20030;-84
2024/01/02 03:21:32;;;;;;;14.55;7.78;;;;;;;7.82;100.00;97259.41;5114283;27;20029;-85
2024/01/02 03:23:58;;;;;;;18.25;8.45;;;;;;;7.87;100.00;97276.00;5098461;27;20447;-84
2024/01/02 03:26:24;;;;;;;12.27;6.22;;;;;;;7.82;100.00;97278.91;5098318;27;20422;-83
2024/01/02 03:28:50;;;;;;;11.85;6.95;;;;;;;7.81;100.00;97271.88;5115421;27;20087;-83
2024/01/02 03:31:16;;;;;;;14.93;8.25;;;;;;;7.84;100.00;97270.84;5115156;27;20505;-84
2024/01/02 03:33:42;;;;;;;13.00;6.68;;;;;;;7.87;100.00;97276.00;5098430;27;20492;-83
2024/01/02 03:36:18;;;;;;;9.15;4.97;;;;;;;7.91;100.00;97282.88;5132311;27;20106;-83
2024/01/02 03:38:47;;;;;;;16.60;4.22;;;;;;;7.96;100.00;97280.81;5080593;28;20063;-83
2024/01/02 03:41:16;;;;;;;7.75;3.65;;;;;;;7.99;100.00;97278.00;5101966;27;20091;-83
2024/01/02 03:43:42;;;;;;;7.28;3.72;;;;;;;7.94;100.00;97272.91;5114848;27;20033;-85
2024/01/02 03:46:08;;;;;;;8.90;4.28;;;;;;;7.87;100.00;97270.69;5114916;27;20019;-82
2024/01/02 03:48:34;;;;;;;9.90;4.88;;;;;;;7.79;100.00;97281.75;5094684;28;20036;-83
2024/01/02 03:51:03;;;;;;;8.88;5.10;;;;;;;7.76;100.00;97279.25;5114009;27;20122;-83
2024/01/02 03:53:29;;;;;;;11.80;5.32;;;;;;;7.74;100.00;97286.47;5097966;27;20163;-83
2024/01/02 03:55:55;;;;;;;12.95;5.40;;;;;;;7.70;100.00;97278.72;5097909;27;20118;-83
2024/01/02 03:58:21;;;;;;;11.30;4.90;;;;;;;7.71;100.00;97291.97;5097673;27;20096;-83
2024/01/02 04:00:47;;;;;;;9.13;5.45;;;;;;;7.70;100.00;97294.69;5097330;27;20023;-83
2024/01/02 04:03:13;;;;;;;14.55;7.05;;;;;;;7.64;100.00;97295.91;5097761;27;20023;-84
2024/01/02 04:05:38;;;;;;;16.58;6.95;;;;;;;7.57;100.00;97294.50;5097420;27;20031;-83
2024/01/02 04:08:04;;;;;;;12.75;6.40;;;;;;;7.63;100.00;97304.81;5105608;27;20043;-83
2024/01/02 04:10:30;;;;;;;13.95;6.60;;;;;;;7.53;100.00;97303.63;5117776;27;20486;-83
2024/01/02 04:12:55;;;;;;;13.10;7.25;;;;;;;7.55;100.00;97305.25;5117695;27;20018;-83
2024/01/02 04:15:21;;;;;;;37.97;14.85;;;;;;;7.60;100.00;97294.34;5117813;27;20405;-83
2024/01/02 04:17:47;;;;;;;86.03;30.55;;;;;;;7.59;100.00;97287.31;5117911;27;20026;-83
2024/01/02 04:20:12;;;;;;;38.70;14.82;;;;;;;7.60;100.00;97289.88;5117730;27;20023;-83
2024/01/02 04:22:39;;;;;;;21.60;7.97;;;;;;;7.71;100.00;97296.44;5134846;27;20022;-83
2024/01/02 04:25:06;;;;;;;17.23;6.70;;;;;;;7.81;100.00;97298.50;5117579;27;20033;-83
2024/01/02 04:27:32;;;;;;;14.75;6.97;;;;;;;7.67;100.00;97294.88;5117084;27;20029;-84
2024/01/02 04:29:58;;;;;;;27.73;11.60;;;;;;;7.69;100.00;97300.97;5112407;27;20401;-84
2024/01/02 04:32:23;;;;;;;20.02;8.93;;;;;;;7.54;100.00;97284.03;5117484;27;20027;-84
2024/01/02 04:34:49;;;;;;;13.68;6.95;;;;;;;7.58;100.00;97304.22;5134787;27;20034;-83
2024/01/02 04:37:14;;;;;;;26.00;10.48;;;;;;;7.56;100.00;97299.00;5134716;27;20027;-83
2024/01/02 04:39:40;;;;;;;23.20;11.23;;;;;;;7.65;100.00;97305.63;5117298;27;20031;-83
2024/01/02 04:42:05;;;;;;;23.13;11.02;;;;;;;7.75;100.00;97308.63;5117192;27;20022;-83
2024/01/02 04:44:31;;;;;;;24.83;9.90;;;;;;;7.63;100.00;97300.34;5114672;27;20053;-83
2024/01/02 04:46:57;;;;;;;46.17;17.38;;;;;;;7.75;100.00;97298.84;5113245;27;20027;-83
2024/01/02 04:49:23;;;;;;;26.98;12.50;;;;;;;7.73;100.00;97300.72;5134559;27;20061;-83
2024/01/02 04:51:49;;;;;;;32.28;12.15;;;;;;;7.73;100.00;97294.53;5108603;27;20482;-83
2024/01/02 04:54:14;;;;;;;36.17;11.98;;;;;;;7.70;100.00;97305.34;5113633;27;20026;-84
2024/01/02 04:56:40;;;;;;;25.98;10.30;;;;;;;7.58;100.00;97302.41;5116547;27;20071;-84
2024/01/02 04:59:06;;;;;;;16.52;8.18;;;;;;;7.77;100.00;97301.41;5117247;27;20023;-83
2024/01/02 05:01:37;;;;;;;12.25;6.03;;;;;;;7.86;100.00;97304.44;5108856;27;20534;-84
2024/01/02 05:04:20;;;;;;;17.98;7.03;;;;;;;7.69;100.00;97299.16;5131076;27;20038;-83
2024/01/02 05:06:46;;;;;;;10.30;5.32;;;;;;;7.78;100.00;97300.47;5104506;28;20414;-84
2024/01/02 05:09:12;;;;;;;61.92;21.02;;;;;;;7.82;100.00;97300.22;5096711;27;20035;-85
2024/01/02 05:11:38;;;;;;;154.27;51.05;;;;;;;7.88;100.00;97310.53;5080038;28;20030;-83
2024/01/02 05:14:04;;;;;;;14.20;7.15;;;;;;;7.90;100.00;97308.66;5079190;28;20110;-85
2024/01/02 05:16:30;;;;;;;62.53;18.48;;;;;;;7.82;100.00;97305.53;5094588;28;20087;-85
2024/01/02 05:18:56;;;;;;;54.63;19.58;;;;;;;7.76;100.00;97311.19;5086516;28;20046;-84
2024/01/02 05:21:21;;;;;;;60.83;21.20;;;;;;;7.75;100.00;97312.16;5108202;28;20035;-85
2024/01/02 05:23:47;;;;;;;19.48;8.95;;;;;;;7.70;100.00;97319.53;5091786;28;20501;-84
2024/01/02 05:26:12;;;;;;;10.60;5.13;;;;;;;7.68;100.00;97326.75;5091099;27;20027;-81
2024/01/02 05:28:38;;;;;;;13.40;7.10;;;;;;;7.53;100.00;97328.44;5111180;27;20034;-83
2024/01/02 05:31:04;;;;;;;74.55;27.73;;;;;;;7.56;100.00;97324.75;5108835;27;20085;-80
2024/01/02 05:33:33;;;;;;;40.78;17.40;;;;;;;7.44;100.00;97325.41;5089947;28;20027;-85
2024/01/02 05:35:58;;;;;;;33.05;14.82;;;;;;;7.35;100.00;97336.53;5085890;28;20030;-84
2024/01/02 05:38:24;;;;;;;35.20;13.50;;;;;;;7.35;100.00;97348.00;5083702;28;20028;-82
2024/01/02 05:40:49;;;;;;;27.13;12.25;;;;;;;7.25;100.00;97351.25;5095375;27;20038;-83
2024/01/02 05:43:15;;;;;;;32.60;13.57;;;;;;;7.30;100.00;97362.47;5105747;27;20038;-82
2024/01/02 05:46:16;;;;;;;39.85;15.77;;;;;;;7.17;100.00;97337.47;5104540;28;20031;-82
2024/01/02 05:48:42;;;;;;;56.88;26.10;;;;;;;7.32;100.00;97373.94;5115281;28;20524;-82
2024/01/02 05:51:08;;;;;;;75.45;37.88;;;;;;;7.27;100.00;97376.81;5083193;28;20055;-82
2024/01/02 05:53:33;;;;;;;52.53;25.70;;;;;;;7.23;100.00;97369.09;5083408;28;20058;-82
2024/01/02 05:55:59;;;;;;;28.60;12.50;;;;;;;7.23;100.00;97375.25;5083114;28;20461;-83
2024/01/02 05:58:24;;;;;;;35.28;17.25;;;;;;;7.22;100.00;97380.66;5082861;28;20034;-82
2024/01/02 06:00:50;;;;;;;20.13;9.82;;;;;;;7.19;100.00;97373.69;5083027;28;20380;-82
2024/01/02 06:03:16;;;;;;;14.98;6.97;;;;;;;7.17;100.00;97374.72;5082898;28;20100;-82
2024/01/02 06:05:41;;;;;;;11.25;4.95;;;;;;;7.20;100.00;97385.19;5082834;28;20406;-82
2024/01/02 06:08:07;;;;;;;11.00;5.45;;;;;;;7.17;100.00;97388.03;5099748;27;20470;-81
2024/01/02 06:10:32;;;;;;;11.77;5.50;;;;;;;7.18;100.00;97395.91;5103147;27;20114;-84
2024/01/02 06:12:58;;;;;;;9.95;5.15;;;;;;;7.18;100.00;97395.03;5120009;27;20080;-83
2024/01/02 06:15:24;;;;;;;10.35;4.43;;;;;;;7.20;100.00;97402.00;5102937;27;20034;-82
2024/01/02 06:17:49;;;;;;;9.55;3.33;;;;;;;7.14;100.00;97412.13;5102998;27;20537;-82
2024/01/02 06:20:15;;;;;;;24.30;8.57;;;;;;;6.98;100.00;97412.84;5120211;27;20079;-82
2024/01/02 06:22:41;;;;;;;29.88;9.10;;;;;;;6.84;100.00;97406.50;5102927;27;20023;-82
2024/01/02 06:25:10;;;;;;;55.35;16.45;;;;;;;6.79;100.00;97422.69;5102773;27;20109;-83
2024/01/02 06:27:36;;;;;;;19.73;7.57;;;;;;;6.67;100.00;97417.13;5103281;27;20046;-82
2024/01/02 06:33:25;;;;;;;19.80;11.55;;;;;;;6.71;100.00;97446.09;5135841;27;20061;-84
2024/01/02 06:35:50;;;;;;;92.53;29.65;;;;;;;6.67;100.00;97433.94;5117107;27;20037;-82
2024/01/02 06:38:16;;;;;;;81.63;28.20;;;;;;;6.70;100.00;97441.75;5135646;27;20026;-83
2024/01/02 06:40:42;;;;;;;66.30;24.17;;;;;;;6.57;100.00;97448.56;5120201;27;20055;-82
2024/01/02 06:43:10;;;;;;;36.67;15.60;;;;;;;6.57;100.00;97437.94;5137574;27;20019;-83
2024/01/02 06:45:38;;;;;;;39.35;14.30;;;;;;;6.62;100.00;97451.88;5119764;27;20031;-83
2024/01/02 06:48:04;;;;;;;25.67;11.43;;;;;;;6.60;100.00;97461.72;5138059;27;20051;-84
2024/01/02 06:53:52;;;;;;;43.38;21.35;;;;;;;6.59;100.00;97464.44;5156016;27;20033;-83
2024/01/02 06:59:39;;;;;;;28.58;14.82;;;;;;;6.65;100.00;97472.97;5155651;27;20033;-83
2024/01/02 07:02:05;;;;;;;12.98;7.00;;;;;;;6.63;100.00;97474.84;5120208;27;20397;-83
2024/01/02 07:04:31;;;;;;;15.88;6.95;;;;;;;6.59;100.00;97477.72;5119882;27;20034;-84
2024/01/02 07:06:56;;;;;;;9.75;3.85;;;;;;;6.64;100.00;97483.69;5113039;27;20122;-84
2024/01/02 07:09:22;;;;;;;11.13;4.65;;;;;;;6.71;100.00;97482.44;5116805;27;20023;-85
2024/01/02 07:11:48;;;;;;;8.73;4.28;;;;;;;6.73;100.00;97472.63;5099808;27;20478;-83
2024/01/02 07:14:33;;;;;;;8.23;4.63;;;;;;;6.74;100.00;97477.84;5099822;27;20101;-85
2024/01/02 07:16:59;;;;;;;9.60;5.15;;;;;;;6.70;100.00;97472.78;5134242;27;20027;-83
2024/01/02 07:19:25;;;;;;;9.07;4.60;;;;;;;6.82;100.00;97485.47;5098908;27;20100;-82
2024/01/02 07:21:51;;;;;;;11.65;5.30;;;;;;;6.81;100.00;97481.94;5098685;27;20499;-83
2024/01/02 07:24:16;;;;;;;7.55;4.32;;;;;;;6.74;100.00;97479.66;5116310;27;20039;-82
2024/01/02 07:26:42;;;;;;;5.93;3.50;;;;;;;6.71;100.00;97482.44;5094066;27;20414;-83
2024/01/02 07:29:08;;;;;;;6.38;4.05;;;;;;;6.69;100.00;97485.19;5099023;27;20126;-83
2024/01/02 07:31:35;;;;;;;9.05;4.07;;;;;;;6.74;100.00;97493.81;5114889;27;20031;-83
2024/01/02 07:34:01;;;;;;;13.57;5.95;;;;;;;6.77;100.00;97495.44;5094984;28;20024;-82
2024/01/02 07:36:27;;;;;;;14.25;5.97;;;;;;;6.75;100.00;97484.03;5095627;28;20031;-82
2024/01/02 07:38:53;;;;;;;16.70;7.85;;;;;;;6.74;100.00;97492.94;5108055;28;20438;-82
2024/01/02 07:41:19;;;;;;;7.53;3.97;;;;;;;6.77;100.00;97496.31;5097821;27;20088;-83
2024/01/02 07:43:44;;;;;;;7.47;4.13;;;;;;;6.71;100.00;97487.75;5098121;27;20027;-81
2024/01/02 07:46:10;;;;;;;13.18;5.55;;;;;;;6.73;100.00;97505.38;5097865;27;20491;-82
2024/01/02 07:48:36;;;;;;;8.52;5.35;;;;;;;6.73;100.00;97500.06;5098142;27;20027;-83
2024/01/02 07:51:04;;;;;;;12.43;5.85;;;;;;;6.74;100.00;97504.44;5115157;27;20061;-81
2024/01/02 07:53:31;;;;;;;10.02;5.70;;;;;;;6.66;100.00;97503.94;5097337;27;20029;-81
2024/01/02 07:56:02;;;;;;;10.63;5.30;;;;;;;6.73;100.00;97508.03;5097753;27;20479;-82
2024/01/02 07:58:27;;;;;;;12.40;5.57;;;;;;;6.74;100.00;97514.19;5097823;27;20031;-83
2024/01/02 08:00:53;;;;;;;9.98;5.03;;;;;;;6.74;100.00;97509.75;5098307;27;20031;-82
2024/01/02 08:03:23;;;;;;;16.15;6.07;;;;;;;6.73;100.00;97512.50;5097485;27;20031;-84
2024/01/02 08:05:49;;;;;;;14.27;6.40;;;;;;;6.80;100.00;97513.94;5097520;27;20133;-82
2024/01/02 08:08:15;;;;;;;10.50;6.28;;;;;;;6.77;100.00;97530.88;5130903;27;20051;-71
2024/01/02 08:10:40;;;;;;;12.43;6.00;;;;;;;6.79;100.00;97533.47;5114576;27;20046;-72
2024/01/02 08:13:06;;;;;;;14.07;8.70;;;;;;;6.70;100.00;97532.13;5131393;27;20496;-71
2024/01/02 08:15:32;;;;;;;23.00;11.25;;;;;;;6.74;100.00;97535.47;5150449;27;20026;-69
2024/01/02 08:17:58;;;;;;;28.98;15.27;;;;;;;6.70;100.00;97549.84;5130316;27;20030;-70
2024/01/02 08:20:23;;;;;;;38.15;17.88;;;;;;;6.74;100.00;97531.00;5149950;27;20061;-70
2024/01/02 08:22:49;;;;;;;33.05;18.67;;;;;;;6.76;100.00;97539.78;5113867;27;20474;-70
2024/01/02 08:25:15;;;;;;;34.47;18.17;;;;;;;6.84;100.00;97547.41;5111465;27;20019;-81
2024/01/02 08:27:41;;;;;;;33.30;17.15;;;;;;;6.86;100.00;97546.38;5113827;27;20545;-80
2024/01/02 08:30:07;;;;;;;28.75;16.05;;;;;;;6.91;100.00;97544.38;5099604;27;20059;-70
2024/01/02 08:32:39;;;;;;;32.28;15.35;;;;;;;6.97;100.00;97545.88;5131350;27;20022;-71
2024/01/02 08:35:05;;;;;;;26.50;14.97;;;;;;;7.11;100.00;97545.25;5149658;27;20030;-71
2024/01/02 08:37:31;;;;;;;33.40;19.70;;;;;;;7.18;100.00;97546.66;5113939;27;20041;-69
2024/01/02 08:39:56;;;;;;;28.02;15.35;;;;;;;7.23;100.00;97541.97;5149292;27;20030;-71
2024/01/02 08:42:22;;;;;;;28.92;14.63;;;;;;;7.33;100.00;97548.56;5113955;27;20030;-71
2024/01/02 08:44:47;;;;;;;37.90;19.35;;;;;;;7.39;100.00;97537.59;5110687;27;20042;-71
2024/01/02 08:47:13;;;;;;;16.42;8.73;;;;;;;7.38;100.00;97535.91;5110788;27;20153;-69
2024/01/02 08:49:39;;;;;;;19.88;11.18;;;;;;;7.34;100.00;97537.84;5109401;27;20042;-70
2024/01/02 08:52:05;;;;;;;24.10;13.32;;;;;;;7.39;100.00;97525.16;5129303;27;20041;-70
2024/01/02 08:54:30;;;;;;;19.15;10.88;;;;;;;7.46;100.00;97531.06;5130430;27;20442;-70
2024/01/02 08:56:56;;;;;;;12.90;7.57;;;;;;;7.43;100.00;97521.44;5130870;27;20129;-72
2024/01/02 08:59:21;;;;;;;10.55;5.03;;;;;;;7.28;100.00;97516.00;5130742;27;20037;-72
2024/01/02 09:01:51;;;;;;;5.65;3.78;;;;;;;7.12;100.00;97507.03;5113297;27;20037;-70
2024/01/02 09:04:17;;;;;;;11.85;6.18;;;;;;;7.12;100.00;97512.38;5113547;27;20126;-69
2024/01/02 09:06:45;;;;;;;14.18;5.97;;;;;;;7.27;100.00;97515.13;5130680;27;20054;-70
2024/01/02 09:09:10;;;;;;;13.18;6.65;;;;;;;7.37;100.00;97505.78;5130260;27;20018;-70
2024/01/02 09:11:37;;;;;;;22.88;11.85;;;;;;;7.47;100.00;97500.84;5130727;27;20459;-71
2024/01/02 09:14:03;;;;;;;26.95;14.32;;;;;;;7.57;100.00;97502.09;5113285;27;20027;-72
2024/01/02 09:16:32;;;;;;;21.58;9.93;;;;;;;7.62;100.00;97484.09;5130819;27;20478;-72
2024/01/02 09:18:58;;;;;;;16.65;9.65;;;;;;;7.90;100.00;97483.53;5148985;27;20413;-71
2024/01/02 09:21:24;;;;;;;17.05;7.68;;;;;;;7.77;100.00;97472.66;5130972;27;20026;-71
2024/01/02 09:23:50;;;;;;;15.52;7.93;;;;;;;7.75;100.00;97469.22;5129065;27;20034;-71
2024/01/02 09:26:19;;;;;;;12.00;6.68;;;;;;;7.76;100.00;97470.06;5112960;27;20029;-71
2024/01/02 09:28:45;;;;;;;16.02;9.38;;;;;;;7.96;100.00;97470.78;5131032;27;20054;-71
2024/01/02 09:31:12;;;;;;;17.45;10.02;;;;;;;8.04;100.00;97471.22;5128729;27;20113;-71
2024/01/02 09:33:38;;;;;;;17.80;10.07;;;;;;;7.71;100.00;97467.66;5113593;27;20054;-71
2024/01/02 09:36:07;;;;;;;24.15;10.95;;;;;;;7.77;100.00;97466.47;5112323;27;20568;-69
2024/01/02 09:38:34;;;;;;;16.33;8.10;;;;;;;7.94;100.00;97467.31;5129419;27;20030;-71
2024/01/02 09:41:19;;;;;;;11.73;5.95;;;;;;;8.17;100.00;97461.63;5130639;27;20023;-71
2024/01/02 09:44:04;;;;;;;8.15;4.65;;;;;;;8.55;100.00;97464.03;5130408;27;20037;-73
2024/01/02 09:46:47;;;;;;;9.98;5.88;;;;;;;9.02;100.00;97461.34;5136129;27;20370;-71
2024/01/02 09:49:39;;;;;;;8.35;4.97;;;;;;;9.34;100.00;97457.69;5128277;27;20022;-72
2024/01/02 09:52:36;;;;;;;8.13;5.30;;;;;;;9.51;100.00;97438.00;5129960;27;20037;-73
2024/01/02 09:55:46;;;;;;;8.05;4.15;;;;;;;9.00;100.00;97416.09;5130337;27;20038;-72
2024/01/02 09:58:45;;;;;;;7.47;3.95;;;;;;;9.55;100.00;97413.72;5149013;27;20054;-72
2024/01/02 10:01:46;;;;;;;5.55;3.25;;;;;;;9.11;100.00;97402.13;5130832;27;20416;-72
2024/01/02 10:04:50;;;;;;;5.50;3.08;;;;;;;9.36;100.00;97406.88;5044878;28;20456;-71
2024/01/02 10:07:22;;;;;;;10.20;5.10;;;;;;;9.21;100.00;97400.66;5119995;27;20055;-72
2024/01/02 10:10:08;;;;;;;4.80;2.90;;;;;;;9.64;100.00;97402.47;5152887;27;20027;-72
2024/01/02 10:12:40;;;;;;;5.70;2.70;;;;;;;9.67;100.00;97385.41;5152499;27;20362;-71
2024/01/02 10:15:30;;;;;;;5.50;3.45;;;;;;;9.79;100.00;97387.31;5134368;27;20459;-72
2024/01/02 10:18:05;;;;;;;12.30;5.93;;;;;;;10.32;100.00;97379.53;5116979;27;20084;-72
2024/01/02 10:20:34;;;;;;;6.82;2.10;;;;;;;10.01;100.00;97376.16;5116706;27;20030;-70
2024/01/02 10:23:02;;;;;;;8.98;3.30;;;;;;;10.16;100.00;97370.75;5152633;27;20038;-72
2024/01/02 10:25:29;;;;;;;59.40;24.52;;;;;;;10.31;100.00;97353.75;5135316;27;20038;-73
2024/01/02 10:28:11;;;;;;;9.25;4.78;;;;;;;10.69;100.00;97353.94;5110896;27;20061;-72
2024/01/02 10:31:05;;;;;;;7.35;4.53;;;;;;;11.43;100.00;97348.06;5133475;27;20565;-72
2024/01/02 10:33:40;;;;;;;5.10;3.15;;;;;;;12.70;100.00;97338.06;5103363;27;20039;-72
2024/01/02 10:36:09;;;;;;;25.83;11.65;;;;;;;14.42;100.00;97323.75;5127246;27;20050;-71
2024/01/02 10:38:53;;;;;;;;;;;;;;;16.14;100.00;97308.19;5132353;27;20046;-71
2024/01/02 10:41:22;;;;;;;4.80;2.50;;;;;;;15.62;100.00;97299.25;5130456;27;20326;-71
2024/01/02 10:43:54;;;;;;;5.32;3.38;;;;;;;14.21;100.00;97310.19;5152082;27;20074;-71
2024/01/02 10:46:23;;;;;;;;;;;;;;;13.16;100.00;97328.31;5152378;27;20034;-71
2024/01/02 10:49:01;;;;;;;6.28;3.30;;;;;;;11.47;100.00;97332.63;5116051;27;19919;-72
2024/01/02 10:51:39;;;;;;;5.95;3.30;;;;;;;11.74;100.00;97334.28;5151918;27;20034;-72
2024/01/02 10:54:05;;;;;;;4.18;2.35;;;;;;;12.05;100.00;97319.56;5126257;27;20030;-72
2024/01/02 10:56:46;;;;;;;7.05;4.22;;;;;;;12.62;100.00;97313.59;5131532;27;20087;-72
2024/01/02 10:59:43;;;;;;;5.10;3.08;;;;;;;13.85;100.00;97303.19;5129678;27;20035;-71
2024/01/02 11:02:27;;;;;;;3.70;2.28;;;;;;;13.99;100.00;97294.91;5130820;27;20081;-72
2024/01/02 11:04:55;;;;;;;3.00;2.00;;;;;;;14.76;100.00;97289.56;5129128;27;20414;-71
2024/01/02 11:07:22;;;;;;;1.80;1.48;;;;;;;14.08;100.00;97271.78;5129455;27;20073;-72
2024/01/02 11:09:55;;;;;;;2.55;1.77;;;;;;;14.53;96.30;97268.06;5129417;27;20021;-72
2024/01/02 11:12:22;;;;;;;6.93;3.25;;;;;;;14.97;99.41;97269.78;5133177;27;20023;-72
2024/01/02 11:14:49;;;;;;;4.60;2.88;;;;;;;15.11;91.44;97265.91;5132675;27;20018;-71
2024/01/02 11:17:15;;;;;;;9.20;3.47;;;;;;;15.86;98.90;97276.50;5114842;27;20398;-72
2024/01/02 11:19:44;;;;;;;;;;;;;;;17.40;77.06;97256.09;5105129;27;20027;-73
2024/01/02 11:22:27;;;;;;;8.75;3.65;;;;;;;17.69;70.73;97246.94;5129313;27;19915;-72
2024/01/02 11:24:57;;;;;;;5.72;4.03;;;;;;;17.29;70.56;97252.53;5126071;27;20440;-72
2024/01/02 11:27:23;;;;;;;;;;;;;;;14.87;91.79;97279.59;5128928;27;20081;-72
2024/01/02 11:29:51;;;;;;;6.10;4.07;;;;;;;13.77;100.00;97288.66;5117963;27;19911;-72
2024/01/02 11:32:22;;;;;;;5.22;2.88;;;;;;;13.29;100.00;97286.09;5129901;27;20066;-72
2024/01/02 11:34:49;;;;;;;6.00;3.90;;;;;;;13.12;100.00;97283.00;5115293;27;20023;-72
2024/01/02 11:37:37;;;;;;;71.50;37.05;;;;;;;12.94;100.00;97298.66;5118289;27;20189;-72
2024/01/02 11:40:21;;;;;;;12.13;7.88;;;;;;;12.73;100.00;97285.03;5117989;27;20017;-72